KDNS/DNS METAR and TAF weather

Enter ICAO airport designator
Station Type Date Time Source
KDNS METAR 2021/09/24 06:55 UTC NOAA

KDNS 240655Z AUTO 21004KT 10SM CLR 15/07 A2991 RMK AO2


Station Type Date Time Source
KDNS Decoded METAR 2021/09/24 06:55 UTC NOAA

Denison, IA, United States (KDNS) 41-59N 095-23W
Sep 24, 2021 - 02:55 AM EDT / 2021.09.24 0655 UTC
Wind: from the SSW (210 degrees) at 5 MPH (4 KT):0
Visibility: 10 mile(s):0
Sky conditions: clear
Temperature: 59 F (15 C)
Dew Point: 44 F (7 C)
Relative Humidity: 58%
Pressure (altimeter): 29.91 in. Hg (1012 hPa)
ob: KDNS 240655Z AUTO 21004KT 10SM CLR 15/07 A2991 RMK AO2
cycle: 7

Station Type Date Time Source
KDNS TAF UTC NOAA

Error!

Example: see airport list